Time;durP1;ratioP1;P1;durP2;ratioP2;P2;SDS_P1;SDS_P2;PMS_P1;PMS_P2;Temp;Humidity;BMP_temperature;BMP_pressure;BME280_temperature;BME280_humidity;BME280_pressure;Samples;Min_cycle;Max_cycle;Signal;HPM_P1;HPM_P2
2022/12/09 00:01:45;;;;;;;;;36.50;27.00;;;;;7.92;100.00;100417.97;5081414;27;56803;-70
2022/12/09 00:04:11;;;;;;;;;33.25;25.50;;;;;7.94;100.00;100417.16;5082092;27;45831;-69
2022/12/09 00:06:36;;;;;;;;;32.75;25.75;;;;;7.89;100.00;100408.31;5077894;27;49820;-70
2022/12/09 00:09:02;;;;;;;;;26.00;19.75;;;;;7.94;100.00;100419.78;5074868;27;45437;-71
2022/12/09 00:11:27;;;;;;;;;33.50;28.25;;;;;7.90;100.00;100404.81;5054015;27;45518;-71
2022/12/09 00:13:55;;;;;;;;;26.00;23.25;;;;;7.90;100.00;100402.19;5081204;27;45481;-70
2022/12/09 00:16:21;;;;;;;;;34.00;26.00;;;;;7.94;100.00;100408.41;5080956;27;45310;-70
2022/12/09 00:18:47;;;;;;;;;29.75;21.50;;;;;7.90;100.00;100398.69;5085724;27;46562;-70
2022/12/09 00:21:13;;;;;;;;;36.50;28.00;;;;;7.88;100.00;100391.66;5082252;27;45699;-70
2022/12/09 00:23:39;;;;;;;;;35.25;27.25;;;;;7.91;100.00;100398.69;5080468;27;45427;-70
2022/12/09 00:26:04;;;;;;;;;36.50;26.25;;;;;7.91;100.00;100403.97;5078476;27;49340;-71
2022/12/09 00:28:30;;;;;;;;;40.50;28.00;;;;;7.87;100.00;100391.63;5076406;27;53985;-70
2022/12/09 00:30:59;;;;;;;;;30.75;23.50;;;;;7.86;100.00;100393.38;5072339;27;52505;-70
2022/12/09 00:33:25;;;;;;;;;31.50;27.00;;;;;7.92;100.00;100396.94;5072515;27;45694;-70
2022/12/09 00:35:50;;;;;;;;;37.25;23.75;;;;;7.91;100.00;100400.44;5061801;28;48811;-70
2022/12/09 00:38:15;;;;;;;;;25.75;21.75;;;;;7.89;100.00;100395.19;5079696;27;45409;-70
2022/12/09 00:40:41;;;;;;;;;23.50;20.25;;;;;7.90;100.00;100396.94;5073345;27;60463;-70
2022/12/09 00:43:06;;;;;;;;;24.75;18.75;;;;;7.90;100.00;100390.81;5075828;27;45739;-70
2022/12/09 00:45:31;;;;;;;;;44.75;27.00;;;;;7.89;100.00;100392.56;5076387;28;45474;-70
2022/12/09 00:47:57;;;;;;;;;24.00;20.25;;;;;7.86;100.00;100384.59;5078771;27;61343;-70
2022/12/09 00:50:22;;;;;;;;;30.50;25.50;;;;;7.84;100.00;100378.47;5069141;27;60939;-70
2022/12/09 00:52:47;;;;;;;;;28.75;21.50;;;;;7.87;100.00;100384.63;5075571;27;49850;-70
2022/12/09 00:55:13;;;;;;;;;23.75;19.00;;;;;7.90;100.00;100389.06;5077590;28;45474;-70
2022/12/09 00:57:39;;;;;;;;;28.50;20.25;;;;;7.88;100.00;100386.41;5078062;27;64287;-71
2022/12/09 01:00:05;;;;;;;;;35.25;25.25;;;;;7.89;100.00;100392.56;5078769;27;45488;-70
2022/12/09 01:02:31;;;;;;;;;29.50;23.75;;;;;7.83;100.00;100371.44;5049731;27;45340;-70
2022/12/09 01:04:56;;;;;;;;;34.50;25.00;;;;;7.87;100.00;100379.38;5059336;28;49231;-70
2022/12/09 01:07:21;;;;;;;;;28.00;22.75;;;;;7.86;100.00;100380.22;5076949;27;61069;-71
2022/12/09 01:09:47;;;;;;;;;32.25;22.75;;;;;7.83;100.00;100371.44;5058858;27;57544;-71
2022/12/09 01:12:12;;;;;;;;;34.00;20.25;;;;;7.83;100.00;100374.94;5087136;27;45407;-71
2022/12/09 01:14:38;;;;;;;;;24.00;21.00;;;;;7.85;100.00;100370.59;5084946;27;45540;-70
2022/12/09 01:17:03;;;;;;;;;25.25;19.75;;;;;7.82;100.00;100367.91;5080586;27;46457;-71
2022/12/09 01:19:28;;;;;;;;;19.00;18.00;;;;;7.85;100.00;100381.09;5074841;27;52516;-70
2022/12/09 01:21:54;;;;;;;;;33.00;22.75;;;;;7.85;100.00;100377.59;5077924;27;45437;-70
2022/12/09 01:24:19;;;;;;;;;24.50;20.75;;;;;7.81;100.00;100373.16;5081074;27;45358;-70
2022/12/09 01:26:45;;;;;;;;;20.50;19.25;;;;;7.82;100.00;100372.28;5076211;27;61987;-70
2022/12/09 01:29:10;;;;;;;;;33.25;23.50;;;;;7.80;100.00;100366.13;5068061;27;46038;-70
2022/12/09 01:31:36;;;;;;;;;31.75;26.75;;;;;7.81;100.00;100370.50;5077085;27;45290;-69
2022/12/09 01:34:01;;;;;;;;;24.50;18.00;;;;;7.83;100.00;100376.69;5082207;27;45461;-71
2022/12/09 01:36:28;;;;;;;;;21.75;18.50;;;;;7.78;100.00;100360.84;5080690;27;45461;-70
2022/12/09 01:38:56;;;;;;;;;19.75;18.50;;;;;7.77;100.00;100363.44;5075846;28;45479;-70
2022/12/09 01:41:22;;;;;;;;;28.50;22.25;;;;;7.75;100.00;100355.53;5077306;27;45200;-71
2022/12/09 01:44:06;;;;;;;;;30.50;19.00;;;;;7.79;100.00;100369.63;5078819;27;45677;-70
2022/12/09 01:46:31;;;;;;;;;25.25;21.25;;;;;7.73;100.00;100359.91;5078159;27;47114;-70
2022/12/09 01:48:56;;;;;;;;;26.75;20.75;;;;;7.70;100.00;100367.72;5077762;27;45218;-70
2022/12/09 01:51:22;;;;;;;;;31.00;20.75;;;;;7.75;100.00;100376.56;5042328;28;45507;-70
2022/12/09 01:53:49;;;;;;;;;22.75;21.75;;;;;7.69;100.00;100365.09;5076417;27;54871;-70
2022/12/09 01:56:25;;;;;;;;;25.25;19.50;;;;;7.75;100.00;100379.19;5092425;27;45711;-70
2022/12/09 01:58:51;;;;;;;;;24.50;18.75;;;;;7.70;100.00;100370.34;5077243;27;45617;-70
2022/12/09 02:01:17;;;;;;;;;29.00;18.50;;;;;7.68;100.00;100364.22;5092785;27;45503;-70
2022/12/09 02:03:42;;;;;;;;;27.50;21.50;;;;;7.64;100.00;100353.63;5072768;28;45637;-70
2022/12/09 02:06:08;;;;;;;;;20.50;18.00;;;;;7.69;100.00;100370.34;5084447;27;64540;-70
2022/12/09 02:08:33;;;;;;;;;23.50;19.25;;;;;7.65;100.00;100360.63;5082469;27;45501;-70
2022/12/09 02:11:21;;;;;;;;;25.25;18.25;;;;;7.70;100.00;100369.47;5078377;27;56151;-69
2022/12/09 02:14:07;;;;;;;;;22.75;18.75;;;;;7.69;100.00;100375.59;5077655;27;45232;-70
2022/12/09 02:16:40;;;;;;;;;30.00;20.50;;;;;7.62;100.00;100358.88;5085780;27;46806;-70
2022/12/09 02:19:38;;;;;;;;;28.25;18.25;;;;;7.65;100.00;100361.50;5092136;27;45307;-70
2022/12/09 02:22:06;;;;;;;;;26.75;22.25;;;;;7.64;100.00;100358.88;5048574;27;45253;-70
2022/12/09 02:25:01;;;;;;;;;25.00;19.25;;;;;7.63;100.00;100363.25;5063802;27;54267;-70
2022/12/09 02:27:37;;;;;;;;;33.25;25.25;;;;;7.60;100.00;100356.19;5073982;27;45656;-70
2022/12/09 02:30:15;;;;;;;;;24.50;18.00;;;;;7.58;100.00;100354.41;5070958;27;45361;-70
2022/12/09 02:32:55;;;;;;;;;30.00;17.25;;;;;7.56;100.00;100358.75;5081164;27;45337;-70
2022/12/09 02:35:35;;;;;;;;;26.50;18.75;;;;;7.53;100.00;100364.84;5076425;27;45377;-70
2022/12/09 02:38:14;;;;;;;;;22.25;17.25;;;;;7.52;100.00;100363.09;5071250;27;47301;-69
2022/12/09 02:40:45;;;;;;;;;14.75;11.50;;;;;7.51;100.00;100360.41;5057739;28;45334;-69
2022/12/09 02:43:11;;;;;;;;;27.75;22.25;;;;;7.46;100.00;100349.84;5059450;27;45953;-69
2022/12/09 02:45:38;;;;;;;;;28.25;22.25;;;;;7.49;100.00;100354.25;5061156;28;45543;-69
2022/12/09 02:48:04;;;;;;;;;20.50;18.00;;;;;7.47;100.00;100349.00;5062351;27;63803;-71
2022/12/09 02:50:33;;;;;;;;;31.75;21.00;;;;;7.46;100.00;100349.84;5076262;27;45355;-70
2022/12/09 02:53:01;;;;;;;;;24.50;17.50;;;;;7.44;100.00;100356.81;5059698;27;45451;-71
2022/12/09 02:55:27;;;;;;;;;27.50;21.25;;;;;7.41;100.00;100343.66;5091760;27;45207;-69
2022/12/09 02:57:55;;;;;;;;;22.25;17.00;;;;;7.44;100.00;100348.06;5090287;27;46689;-70
2022/12/09 03:00:20;;;;;;;;;26.75;13.75;;;;;7.44;100.00;100350.69;5057449;28;45540;-70
2022/12/09 03:02:48;;;;;;;;;22.25;16.25;;;;;7.38;100.00;100334.81;5058187;28;45671;-71
2022/12/09 03:05:20;;;;;;;;;25.25;19.25;;;;;7.41;100.00;100354.16;5074635;28;46223;-71
2022/12/09 03:08:01;;;;;;;;;31.50;20.25;;;;;7.37;100.00;100352.31;5056669;28;46490;-70
2022/12/09 03:10:31;;;;;;;;;19.50;16.25;;;;;7.39;100.00;100354.97;5069927;27;45890;-70
2022/12/09 03:13:07;;;;;;;;;31.25;20.00;;;;;7.35;100.00;100349.69;5061291;28;45410;-70
2022/12/09 03:15:34;;;;;;;;;21.50;15.00;;;;;7.28;100.00;100333.78;5075288;28;45293;-71
2022/12/09 03:18:02;;;;;;;;;21.75;17.25;;;;;7.29;100.00;100346.94;5079023;27;46327;-70
2022/12/09 03:20:29;;;;;;;;;22.00;18.25;;;;;7.26;100.00;100338.16;5091255;27;45391;-71
2022/12/09 03:22:59;;;;;;;;;22.00;14.50;;;;;7.22;100.00;100331.94;5080285;27;45295;-70
2022/12/09 03:25:32;;;;;;;;;22.50;14.75;;;;;7.26;100.00;100341.66;5057056;27;45453;-70
2022/12/09 03:28:01;;;;;;;;;25.00;15.50;;;;;7.24;100.00;100339.84;5085198;27;46171;-70
2022/12/09 03:30:30;;;;;;;;;23.00;15.75;;;;;7.22;100.00;100336.31;5061529;27;45252;-70
2022/12/09 03:32:55;;;;;;;;;17.00;12.75;;;;;7.19;100.00;100334.53;5077863;27;45407;-71
2022/12/09 03:35:25;;;;;;;;;15.75;11.75;;;;;7.12;100.00;100326.53;5086373;27;53354;-71
2022/12/09 03:37:50;;;;;;;;;17.50;11.75;;;;;7.15;100.00;100330.09;5064963;28;46604;-70
2022/12/09 03:40:20;;;;;;;;;18.00;15.75;;;;;7.16;100.00;100328.34;5067709;27;45574;-70
2022/12/09 03:42:49;;;;;;;;;14.00;12.25;;;;;7.13;100.00;100323.03;5060888;28;45629;-70
2022/12/09 03:45:15;;;;;;;;;21.25;10.75;;;;;7.12;100.00;100321.28;5060944;28;45515;-70
2022/12/09 03:47:41;;;;;;;;;18.75;10.25;;;;;7.05;100.00;100309.78;5061539;28;46429;-70
2022/12/09 03:50:07;;;;;;;;;13.00;9.00;;;;;7.07;100.00;100322.06;5080456;27;56747;-70
2022/12/09 03:52:39;;;;;;;;;17.50;16.00;;;;;7.07;100.00;100321.19;5082821;27;45228;-70
2022/12/09 03:55:15;;;;;;;;;15.25;10.50;;;;;7.07;100.00;100315.94;5094880;27;45374;-71
2022/12/09 03:57:42;;;;;;;;;14.00;12.25;;;;;7.10;100.00;100323.88;5060289;27;47369;-69
2022/12/09 04:00:08;;;;;;;;;13.75;10.50;;;;;7.09;100.00;100328.25;5066092;28;48956;-70
2022/12/09 04:02:33;;;;;;;;;14.25;10.50;;;;;7.03;100.00;100317.66;5078907;27;45399;-70
2022/12/09 04:04:58;;;;;;;;;20.25;10.50;;;;;7.06;100.00;100316.81;5074993;27;51021;-70
2022/12/09 04:07:25;;;;;;;;;22.00;14.00;;;;;7.02;100.00;100307.97;5083183;27;64753;-70
2022/12/09 04:09:50;;;;;;;;;18.75;12.75;;;;;7.05;100.00;100317.66;5060031;28;45586;-70
2022/12/09 04:12:15;;;;;;;;;21.50;11.50;;;;;7.00;100.00;100306.19;5081136;27;54594;-70
2022/12/09 04:14:41;;;;;;;;;21.50;16.50;;;;;7.04;100.00;100313.28;5086483;27;46012;-70
2022/12/09 04:17:06;;;;;;;;;19.00;14.50;;;;;6.98;100.00;100305.31;5076817;27;62160;-71
2022/12/09 04:19:31;;;;;;;;;19.00;16.00;;;;;6.99;100.00;100302.69;5072802;28;58306;-70
2022/12/09 04:21:57;;;;;;;;;10.75;10.75;;;;;7.02;100.00;100312.34;5079926;27;45559;-70
2022/12/09 04:24:22;;;;;;;;;13.25;12.00;;;;;7.01;100.00;100313.22;5080613;27;55377;-69
2022/12/09 04:26:47;;;;;;;;;15.50;10.25;;;;;6.95;100.00;100303.50;5079503;27;61851;-70
2022/12/09 04:29:13;;;;;;;;;16.00;11.00;;;;;6.94;100.00;100306.09;5078312;27;51377;-71
2022/12/09 04:31:38;;;;;;;;;19.25;10.50;;;;;6.91;100.00;100298.16;5077364;28;52866;-70
2022/12/09 04:34:04;;;;;;;;;16.75;10.50;;;;;6.93;100.00;100301.72;5077420;27;51780;-70
2022/12/09 04:36:29;;;;;;;;;18.25;13.00;;;;;6.90;100.00;100299.91;5077456;27;60288;-70
2022/12/09 04:38:55;;;;;;;;;15.25;13.50;;;;;6.86;100.00;100310.31;5057514;28;45466;-71
2022/12/09 04:41:20;;;;;;;;;13.75;12.75;;;;;6.86;100.00;100299.81;5077445;27;55339;-70
2022/12/09 04:43:45;;;;;;;;;14.75;13.50;;;;;6.88;100.00;100313.88;5082052;27;56152;-70
2022/12/09 04:46:13;;;;;;;;;17.25;10.25;;;;;6.82;100.00;100299.78;5077162;27;46252;-70
2022/12/09 04:48:38;;;;;;;;;18.75;13.00;;;;;6.80;100.00;100306.72;5084710;27;45522;-69
2022/12/09 04:51:07;;;;;;;;;16.25;10.50;;;;;6.78;100.00;100303.22;5074484;27;45474;-70
2022/12/09 04:53:32;;;;;;;;;12.25;12.25;;;;;6.76;100.00;100307.53;5079532;27;45651;-70
2022/12/09 04:56:02;;;;;;;;;12.00;8.50;;;;;6.74;100.00;100309.25;5076895;27;58171;-71
2022/12/09 04:58:28;;;;;;;;;14.00;9.25;;;;;6.74;100.00;100314.50;5079923;27;45338;-70
2022/12/09 05:00:54;;;;;;;;;19.50;12.50;;;;;6.77;100.00;100311.06;5071729;27;45304;-70
2022/12/09 05:03:19;;;;;;;;;13.25;10.00;;;;;6.75;100.00;100316.25;5079413;27;45358;-70
2022/12/09 05:05:44;;;;;;;;;10.75;7.75;;;;;6.74;100.00;100313.63;5078924;27;45603;-70
2022/12/09 05:08:10;;;;;;;;;17.25;14.25;;;;;6.74;100.00;100311.88;5077489;27;45851;-69
2022/12/09 05:10:35;;;;;;;;;14.25;12.50;;;;;6.73;100.00;100315.34;5077531;27;45454;-70
2022/12/09 05:13:01;;;;;;;;;14.75;10.75;;;;;6.69;100.00;100308.28;5072599;28;51662;-70
2022/12/09 05:15:26;;;;;;;;;9.75;8.50;;;;;6.67;100.00;100307.38;5083144;27;47385;-69
2022/12/09 05:17:52;;;;;;;;;10.25;9.00;;;;;6.65;100.00;100303.81;5079844;27;55782;-69
2022/12/09 05:20:18;;;;;;;;;13.00;10.50;;;;;6.65;100.00;100311.69;5077662;27;45419;-70
2022/12/09 05:22:43;;;;;;;;;15.50;9.75;;;;;6.60;100.00;100305.47;5064544;28;45328;-70
2022/12/09 05:25:09;;;;;;;;;13.00;7.75;;;;;6.64;100.00;100309.06;5076836;28;52289;-70
2022/12/09 05:27:34;;;;;;;;;13.50;10.50;;;;;6.61;100.00;100315.16;5080010;27;45367;-69
2022/12/09 05:29:59;;;;;;;;;17.00;9.00;;;;;6.60;100.00;100315.09;5078677;27;53063;-70
2022/12/09 05:32:27;;;;;;;;;18.75;10.75;;;;;6.59;100.00;100315.94;5067851;28;45492;-71
2022/12/09 05:34:53;;;;;;;;;10.50;9.50;;;;;6.53;100.00;100312.34;5054959;28;46705;-71
2022/12/09 05:37:18;;;;;;;;;9.75;9.75;;;;;6.52;100.00;100315.84;5077569;27;45363;-71
2022/12/09 05:39:44;;;;;;;;;13.00;10.75;;;;;6.51;100.00;100307.97;5072384;27;54343;-70
2022/12/09 05:42:09;;;;;;;;;13.50;8.50;;;;;6.55;100.00;100322.88;5080313;27;45600;-71
2022/12/09 05:44:34;;;;;;;;;12.50;7.50;;;;;6.46;100.00;100305.25;5076459;27;59876;-71
2022/12/09 05:47:00;;;;;;;;;10.25;9.00;;;;;6.54;100.00;100315.88;5079140;27;45448;-69
2022/12/09 05:49:25;;;;;;;;;13.75;8.50;;;;;6.49;100.00;100313.16;5071340;27;45643;-70
2022/12/09 05:51:50;;;;;;;;;18.00;13.75;;;;;6.46;100.00;100307.88;5070407;27;46742;-71
2022/12/09 05:54:16;;;;;;;;;9.50;9.50;;;;;6.47;100.00;100319.22;5075070;27;46629;-71
2022/12/09 05:56:41;;;;;;;;;21.50;10.25;;;;;6.42;100.00;100320.88;5066781;28;50541;-70
2022/12/09 05:59:08;;;;;;;;;11.25;9.50;;;;;6.40;100.00;100317.34;5076498;28;45540;-70
2022/12/09 06:01:33;;;;;;;;;12.75;9.00;;;;;6.46;100.00;100327.97;5053112;28;45417;-70
2022/12/09 06:03:58;;;;;;;;;13.25;10.50;;;;;6.45;100.00;100336.69;5079898;27;47327;-71
2022/12/09 06:06:26;;;;;;;;;13.75;10.75;;;;;6.43;100.00;100333.13;5079034;27;45322;-71
2022/12/09 06:08:55;;;;;;;;;13.75;9.00;;;;;6.41;100.00;100332.22;5076080;27;45252;-70
2022/12/09 06:11:21;;;;;;;;;13.25;11.75;;;;;6.38;100.00;100334.78;5076775;27;47247;-71
2022/12/09 06:13:47;;;;;;;;;14.25;10.25;;;;;6.35;100.00;100337.34;5076093;28;46684;-70
2022/12/09 06:16:17;;;;;;;;;17.00;13.75;;;;;6.38;100.00;100350.50;5077307;27;45414;-70
2022/12/09 06:18:43;;;;;;;;;16.00;9.00;;;;;6.36;100.00;100347.88;5075115;27;45375;-69
2022/12/09 06:21:10;;;;;;;;;12.50;12.25;;;;;6.29;100.00;100348.63;5078784;27;45553;-70
2022/12/09 06:23:37;;;;;;;;;11.00;11.00;;;;;6.26;100.00;100340.66;5076895;27;45374;-69
2022/12/09 06:26:03;;;;;;;;;12.50;8.75;;;;;6.29;100.00;100354.72;5083364;27;45479;-69
2022/12/09 06:28:29;;;;;;;;;18.00;13.00;;;;;6.24;100.00;100347.63;5076424;27;45457;-70
2022/12/09 06:30:56;;;;;;;;;15.50;10.50;;;;;6.27;100.00;100345.06;5077584;27;45662;-69
2022/12/09 06:33:21;;;;;;;;;13.00;9.75;;;;;6.24;100.00;100352.88;5078877;27;46421;-70
2022/12/09 06:35:47;;;;;;;;;15.75;10.00;;;;;6.21;100.00;100363.28;5075727;27;53993;-69
2022/12/09 06:38:12;;;;;;;;;22.50;12.50;;;;;6.16;100.00;100357.94;5077684;27;57520;-69
2022/12/09 06:40:41;;;;;;;;;17.75;10.50;;;;;6.18;100.00;100356.25;5075620;27;53141;-69
2022/12/09 06:43:06;;;;;;;;;17.50;13.50;;;;;6.12;100.00;100337.75;5076410;27;47474;-70
2022/12/09 06:45:32;;;;;;;;;15.00;9.75;;;;;6.14;100.00;100349.16;5078125;27;45534;-69
2022/12/09 06:47:57;;;;;;;;;15.50;8.25;;;;;6.15;100.00;100350.06;5068444;27;45546;-70
2022/12/09 06:50:23;;;;;;;;;13.00;8.50;;;;;6.07;100.00;100343.75;5078063;27;45680;-70
2022/12/09 06:52:48;;;;;;;;;14.00;9.00;;;;;6.12;100.00;100353.47;5075734;27;52020;-71
2022/12/09 06:55:13;;;;;;;;;14.50;10.00;;;;;6.02;100.00;100335.81;5076783;27;48127;-69
2022/12/09 06:57:39;;;;;;;;;18.25;12.00;;;;;6.11;100.00;100342.97;5069867;27;51729;-69
2022/12/09 07:00:05;;;;;;;;;18.00;13.75;;;;;6.05;100.00;100346.34;5065611;27;45406;-71
2022/12/09 07:02:32;;;;;;;;;13.75;8.75;;;;;6.05;100.00;100348.97;5063579;27;45780;-70
2022/12/09 07:04:57;;;;;;;;;23.50;12.25;;;;;6.03;100.00;100350.69;5067367;27;45477;-70
2022/12/09 07:07:22;;;;;;;;;13.00;9.25;;;;;6.01;100.00;100357.59;5064008;27;52714;-70
2022/12/09 07:09:48;;;;;;;;;13.00;11.50;;;;;5.98;100.00;100347.97;5065689;27;45601;-72
2022/12/09 07:12:13;;;;;;;;;13.25;9.25;;;;;6.01;100.00;100362.84;5063512;27;46087;-70
2022/12/09 07:14:39;;;;;;;;;16.00;12.25;;;;;5.99;100.00;100356.69;5071961;27;45521;-69
2022/12/09 07:17:04;;;;;;;;;13.50;10.00;;;;;5.93;100.00;100356.56;5073674;28;57462;-69
2022/12/09 07:19:30;;;;;;;;;14.75;9.25;;;;;5.93;100.00;100349.59;5071202;27;45285;-69
2022/12/09 07:21:56;;;;;;;;;15.25;12.75;;;;;5.97;100.00;100359.28;5074020;27;45689;-70
2022/12/09 07:24:22;;;;;;;;;11.00;9.75;;;;;5.98;100.00;100365.41;5074944;27;45462;-70
2022/12/09 07:26:48;;;;;;;;;14.00;11.00;;;;;5.97;100.00;100364.53;5066923;28;45566;-71
2022/12/09 07:29:14;;;;;;;;;18.75;11.75;;;;;5.98;100.00;100363.69;5074905;27;45387;-70
2022/12/09 07:31:39;;;;;;;;;13.50;11.00;;;;;5.99;100.00;100362.81;5075928;27;47532;-71
2022/12/09 07:34:04;;;;;;;;;20.50;13.00;;;;;5.95;100.00;100354.84;5071123;27;56035;-70
2022/12/09 07:36:31;;;;;;;;;11.50;8.00;;;;;5.96;100.00;100354.88;5075959;27;46056;-71
2022/12/09 07:38:59;;;;;;;;;10.00;6.50;;;;;5.94;100.00;100358.34;5056327;28;46872;-71
2022/12/09 07:41:25;;;;;;;;;18.50;14.50;;;;;5.95;100.00;100362.72;5074983;27;46670;-71
2022/12/09 07:43:50;;;;;;;;;17.50;13.00;;;;;5.99;100.00;100381.16;5075450;27;45403;-70
2022/12/09 07:46:18;;;;;;;;;14.75;12.00;;;;;5.99;100.00;100378.53;5064568;27;49904;-70
2022/12/09 07:48:44;;;;;;;;;12.75;10.75;;;;;5.99;100.00;100382.91;5079169;27;45553;-70
2022/12/09 07:51:09;;;;;;;;;11.00;9.50;;;;;5.93;100.00;100378.41;5073717;27;46524;-70
2022/12/09 07:53:36;;;;;;;;;18.50;12.50;;;;;5.98;100.00;100383.75;5074790;28;46032;-70
2022/12/09 07:56:03;;;;;;;;;14.00;10.75;;;;;5.92;100.00;100374.03;5075204;27;45479;-70
2022/12/09 07:58:29;;;;;;;;;19.25;14.25;;;;;5.94;100.00;100380.19;5069163;27;45569;-70
2022/12/09 08:00:54;;;;;;;;;23.25;13.75;;;;;5.82;100.00;100358.91;5075875;27;46306;-71
2022/12/09 08:03:20;;;;;;;;;10.00;9.00;;;;;5.89;100.00;100373.91;5075482;27;60853;-71
2022/12/09 08:05:54;;;;;;;;;12.25;12.25;;;;;5.93;100.00;100381.03;5074921;28;45553;-70
2022/12/09 08:08:19;;;;;;;;;20.25;15.75;;;;;5.86;100.00;100370.31;5074502;28;46718;-70
2022/12/09 08:10:45;;;;;;;;;9.25;9.00;;;;;5.92;100.00;100383.63;5052400;28;61902;-70
2022/12/09 08:13:11;;;;;;;;;19.75;13.50;;;;;5.92;100.00;100387.13;5080709;27;45638;-69
2022/12/09 08:15:36;;;;;;;;;15.75;10.00;;;;;5.88;100.00;100379.13;5074887;27;45431;-70
2022/12/09 08:18:01;;;;;;;;;19.50;10.00;;;;;5.92;100.00;100388.88;5075102;28;54791;-70
2022/12/09 08:20:28;;;;;;;;;21.00;15.75;;;;;5.87;100.00;100380.00;5072815;27;46285;-69
2022/12/09 08:22:53;;;;;;;;;13.00;10.00;;;;;5.76;100.00;100358.78;5079639;27;45912;-70
2022/12/09 08:25:18;;;;;;;;;19.75;9.25;;;;;5.94;100.00;100384.53;5078413;28;45520;-70
2022/12/09 08:27:44;;;;;;;;;13.25;10.75;;;;;5.94;100.00;100384.53;5075094;28;45451;-70
2022/12/09 08:30:09;;;;;;;;;19.50;17.25;;;;;6.01;100.00;100386.44;5079945;27;60777;-70
2022/12/09 08:32:35;;;;;;;;;13.50;11.25;;;;;5.96;100.00;100377.59;5079406;27;45609;-72
2022/12/09 08:35:00;;;;;;;;;22.00;15.75;;;;;6.03;100.00;100384.75;5059128;27;54437;-70
2022/12/09 08:37:25;;;;;;;;;15.50;10.50;;;;;6.02;100.00;100381.25;5080133;27;45719;-70
2022/12/09 08:39:51;;;;;;;;;20.25;12.50;;;;;6.05;100.00;100380.41;5062471;28;60479;-70
2022/12/09 08:42:16;;;;;;;;;18.75;11.00;;;;;6.07;100.00;100386.56;5078500;27;45443;-71
2022/12/09 08:44:42;;;;;;;;;9.25;9.00;;;;;5.99;100.00;100372.41;5077685;28;45638;-71
2022/12/09 08:47:07;;;;;;;;;10.00;7.00;;;;;6.06;100.00;100383.91;5073882;27;52962;-70
2022/12/09 08:49:32;;;;;;;;;14.75;12.50;;;;;6.12;100.00;100397.16;5077191;27;61305;-71
2022/12/09 08:51:58;;;;;;;;;15.75;10.25;;;;;6.09;100.00;100379.63;5077829;28;45458;-71
2022/12/09 08:54:23;;;;;;;;;20.50;9.75;;;;;6.11;100.00;100391.03;5077735;28;45735;-72
2022/12/09 08:56:50;;;;;;;;;17.50;16.25;;;;;6.18;100.00;100392.03;5075570;27;47120;-71
2022/12/09 08:59:16;;;;;;;;;17.50;14.25;;;;;6.17;100.00;100392.91;5079010;27;46658;-71
2022/12/09 09:01:42;;;;;;;;;17.00;11.75;;;;;6.22;100.00;100396.50;5077251;27;46532;-73
2022/12/09 09:04:10;;;;;;;;;26.25;19.50;;;;;6.27;100.00;100389.63;5079041;27;45465;-72
2022/12/09 09:06:37;;;;;;;;;26.75;21.00;;;;;6.25;100.00;100399.19;5077911;28;45217;-72
2022/12/09 09:09:04;;;;;;;;;18.00;15.00;;;;;6.30;100.00;100394.94;5077673;27;47429;-72
2022/12/09 09:11:30;;;;;;;;;20.75;16.00;;;;;6.31;100.00;100394.09;5079746;27;45454;-71
2022/12/09 09:13:55;;;;;;;;;20.50;14.50;;;;;6.27;100.00;100394.88;5077320;28;57629;-72
2022/12/09 09:16:23;;;;;;;;;21.50;19.00;;;;;6.32;100.00;100401.09;5077523;27;54009;-71
2022/12/09 09:18:49;;;;;;;;;26.50;16.00;;;;;6.27;100.00;100400.09;5077214;27;47497;-72
2022/12/09 09:21:16;;;;;;;;;17.00;14.25;;;;;6.30;100.00;100394.94;5080065;27;45371;-71
2022/12/09 09:23:42;;;;;;;;;20.75;17.25;;;;;6.28;100.00;100394.00;5077786;28;45473;-72
2022/12/09 09:26:13;;;;;;;;;16.00;13.00;;;;;6.30;100.00;100395.81;5079710;27;45546;-72
2022/12/09 09:28:38;;;;;;;;;28.75;20.75;;;;;6.34;100.00;100391.53;5073320;27;46717;-71
2022/12/09 09:31:06;;;;;;;;;18.25;15.25;;;;;6.34;100.00;100388.91;5076603;28;45538;-71
2022/12/09 09:33:31;;;;;;;;;26.00;17.50;;;;;6.37;100.00;100393.31;5076328;27;45555;-71
2022/12/09 09:35:58;;;;;;;;;21.25;18.00;;;;;6.32;100.00;100390.59;5081101;27;45725;-71
2022/12/09 09:38:24;;;;;;;;;24.50;18.75;;;;;6.30;100.00;100397.56;5075273;28;45868;-71
2022/12/09 09:40:50;;;;;;;;;19.00;14.00;;;;;6.21;100.00;100394.75;5056991;28;45390;-71
2022/12/09 09:43:18;;;;;;;;;22.00;20.00;;;;;6.21;100.00;100402.59;5062142;28;45521;-72
2022/12/09 09:45:45;;;;;;;;;33.00;23.25;;;;;6.19;100.00;100405.19;5076985;28;45395;-71
2022/12/09 09:48:16;;;;;;;;;24.75;18.50;;;;;6.25;100.00;100402.72;5092199;27;47480;-73
2022/12/09 09:50:52;;;;;;;;;23.75;20.25;;;;;6.28;100.00;100396.63;5059046;28;45439;-71
2022/12/09 09:53:24;;;;;;;;;20.00;14.00;;;;;6.27;100.00;100401.00;5087562;27;45546;-71
2022/12/09 09:56:18;;;;;;;;;19.00;19.00;;;;;6.35;100.00;100411.66;5076638;27;45529;-71
2022/12/09 09:59:21;;;;;;;;;19.50;14.75;;;;;6.38;100.00;100410.81;5091008;27;46604;-71
2022/12/09 10:02:17;;;;;;;;;22.00;17.75;;;;;6.42;100.00;100404.78;5074825;27;45572;-72
2022/12/09 10:04:51;;;;;;;;;23.50;17.50;;;;;6.45;100.00;100402.25;5074961;28;45438;-71
2022/12/09 10:07:38;;;;;;;;;16.50;14.25;;;;;6.42;100.00;100405.69;5077251;28;45520;-71
2022/12/09 10:10:12;;;;;;;;;23.00;16.00;;;;;6.40;100.00;100409.13;5090844;27;47317;-72
2022/12/09 10:12:53;;;;;;;;;20.50;14.75;;;;;6.39;100.00;100394.22;5078681;27;45170;-71
2022/12/09 10:15:43;;;;;;;;;14.00;12.00;;;;;6.37;100.00;100378.47;5080952;27;45640;-71
2022/12/09 10:18:19;;;;;;;;;16.75;13.75;;;;;6.48;100.00;100387.44;5076038;27;45352;-71
2022/12/09 10:20:44;;;;;;;;;24.25;20.75;;;;;6.49;100.00;100369.97;5075813;27;46781;-72
2022/12/09 10:23:12;;;;;;;;;23.75;20.50;;;;;6.54;100.00;100376.19;5058477;28;45455;-72
2022/12/09 10:25:43;;;;;;;;;17.25;15.25;;;;;6.52;100.00;100384.03;5073628;28;45421;-71
2022/12/09 10:28:24;;;;;;;;;26.75;17.50;;;;;6.49;100.00;100377.84;5074990;28;45492;-72
2022/12/09 10:30:52;;;;;;;;;25.75;20.50;;;;;6.44;100.00;100371.59;5075220;27;47652;-72
2022/12/09 10:33:21;;;;;;;;;21.00;15.00;;;;;6.53;100.00;100377.94;5060075;27;45466;-71
2022/12/09 10:35:47;;;;;;;;;24.25;18.25;;;;;6.59;100.00;100377.16;5077636;27;45490;-71
2022/12/09 10:38:16;;;;;;;;;26.75;22.50;;;;;6.61;100.00;100378.09;5058558;27;45576;-71
2022/12/09 10:40:45;;;;;;;;;27.75;21.75;;;;;6.68;100.00;100384.34;5057086;27;46679;-72
2022/12/09 10:46:10;;;;;;;;;30.00;24.00;;;;;6.79;100.00;100364.44;5075439;28;45288;-71
2022/12/09 10:48:43;;;;;;;;;26.75;21.50;;;;;6.80;100.00;100360.94;5090889;27;45223;-71
2022/12/09 10:51:14;;;;;;;;;29.75;21.00;;;;;6.83;100.00;100366.28;5057805;28;46415;-71
2022/12/09 10:53:54;;;;;;;;;28.25;21.50;;;;;6.82;100.00;100362.75;5076161;28;45422;-71
2022/12/09 10:56:32;;;;;;;;;36.25;27.00;;;;;6.82;100.00;100359.25;5075315;27;45545;-73
2022/12/09 10:59:25;;;;;;;;;21.25;19.50;;;;;6.88;100.00;100356.75;5077332;27;45422;-71
2022/12/09 11:01:56;;;;;;;;;32.00;23.50;;;;;6.88;100.00;100353.25;5076290;27;46614;-71
2022/12/09 11:04:26;;;;;;;;;30.00;24.25;;;;;6.94;100.00;100362.09;5075670;27;45363;-72
2022/12/09 11:06:55;;;;;;;;;29.25;19.50;;;;;6.87;100.00;100360.22;5068353;28;45430;-70
2022/12/09 11:09:31;;;;;;;;;23.25;18.25;;;;;6.81;100.00;100360.09;5058299;27;45646;-72
2022/12/09 11:11:56;;;;;;;;;27.75;16.00;;;;;6.76;100.00;100338.13;5077747;27;46015;-74
2022/12/09 11:14:24;;;;;;;;;25.25;17.00;;;;;6.76;100.00;100335.50;5076011;27;47877;-72
2022/12/09 11:16:50;;;;;;;;;23.75;18.00;;;;;6.81;100.00;100342.59;5072438;28;45577;-72